sensor_id;sensor_type;location;lat;lon;timestamp;P1;durP1;ratioP1;P2;durP2;ratioP2
13941;SDS011;7043;51.630;7.254;2024-03-29T00:01:57;3.63;;;1.93;;
13941;SDS011;7043;51.630;7.254;2024-03-29T00:04:23;3.33;;;2.03;;
13941;SDS011;7043;51.630;7.254;2024-03-29T00:06:49;4.67;;;2.33;;
13941;SDS011;7043;51.630;7.254;2024-03-29T00:09:15;3.10;;;2.00;;
13941;SDS011;7043;51.630;7.254;2024-03-29T00:11:41;4.00;;;2.50;;
13941;SDS011;7043;51.630;7.254;2024-03-29T00:14:07;2.50;;;2.20;;
13941;SDS011;7043;51.630;7.254;2024-03-29T00:16:33;4.00;;;2.30;;
13941;SDS011;7043;51.630;7.254;2024-03-29T00:18:59;2.67;;;1.80;;
13941;SDS011;7043;51.630;7.254;2024-03-29T00:21:25;4.10;;;2.37;;
13941;SDS011;7043;51.630;7.254;2024-03-29T00:23:51;5.03;;;2.40;;
13941;SDS011;7043;51.630;7.254;2024-03-29T00:26:17;4.97;;;2.60;;
13941;SDS011;7043;51.630;7.254;2024-03-29T00:28:43;4.13;;;3.20;;
13941;SDS011;7043;51.630;7.254;2024-03-29T00:31:09;5.23;;;3.03;;
13941;SDS011;7043;51.630;7.254;2024-03-29T00:33:35;4.73;;;3.27;;
13941;SDS011;7043;51.630;7.254;2024-03-29T00:36:01;6.80;;;5.17;;
13941;SDS011;7043;51.630;7.254;2024-03-29T00:38:27;3.60;;;3.20;;
13941;SDS011;7043;51.630;7.254;2024-03-29T00:40:53;4.93;;;2.70;;
13941;SDS011;7043;51.630;7.254;2024-03-29T00:43:19;5.23;;;3.33;;
13941;SDS011;7043;51.630;7.254;2024-03-29T00:45:45;5.10;;;3.50;;
13941;SDS011;7043;51.630;7.254;2024-03-29T00:48:11;3.30;;;3.00;;
13941;SDS011;7043;51.630;7.254;2024-03-29T00:50:40;5.07;;;3.50;;
13941;SDS011;7043;51.630;7.254;2024-03-29T00:53:06;3.47;;;3.07;;
13941;SDS011;7043;51.630;7.254;2024-03-29T00:55:32;3.67;;;3.23;;
13941;SDS011;7043;51.630;7.254;2024-03-29T00:57:58;4.00;;;3.60;;
13941;SDS011;7043;51.630;7.254;2024-03-29T01:00:24;3.23;;;2.90;;
13941;SDS011;7043;51.630;7.254;2024-03-29T01:02:50;4.93;;;3.17;;
13941;SDS011;7043;51.630;7.254;2024-03-29T01:05:16;3.70;;;2.80;;
13941;SDS011;7043;51.630;7.254;2024-03-29T01:07:42;3.93;;;2.47;;
13941;SDS011;7043;51.630;7.254;2024-03-29T01:10:08;5.00;;;3.50;;
13941;SDS011;7043;51.630;7.254;2024-03-29T01:12:35;3.90;;;3.30;;
13941;SDS011;7043;51.630;7.254;2024-03-29T01:15:01;4.30;;;3.20;;
13941;SDS011;7043;51.630;7.254;2024-03-29T01:17:28;3.77;;;3.00;;
13941;SDS011;7043;51.630;7.254;2024-03-29T01:19:54;2.20;;;2.00;;
13941;SDS011;7043;51.630;7.254;2024-03-29T01:22:20;2.90;;;2.60;;
13941;SDS011;7043;51.630;7.254;2024-03-29T01:24:46;2.97;;;2.10;;
13941;SDS011;7043;51.630;7.254;2024-03-29T01:27:12;4.57;;;2.37;;
13941;SDS011;7043;51.630;7.254;2024-03-29T01:29:38;2.73;;;2.00;;
13941;SDS011;7043;51.630;7.254;2024-03-29T01:32:04;2.30;;;2.10;;
13941;SDS011;7043;51.630;7.254;2024-03-29T01:34:31;3.63;;;2.23;;
13941;SDS011;7043;51.630;7.254;2024-03-29T01:36:58;3.60;;;2.73;;
13941;SDS011;7043;51.630;7.254;2024-03-29T01:39:23;7.80;;;4.93;;
13941;SDS011;7043;51.630;7.254;2024-03-29T01:41:54;4.83;;;3.03;;
13941;SDS011;7043;51.630;7.254;2024-03-29T01:44:20;2.40;;;2.10;;
13941;SDS011;7043;51.630;7.254;2024-03-29T01:46:46;3.20;;;1.87;;
13941;SDS011;7043;51.630;7.254;2024-03-29T01:49:12;3.00;;;2.70;;
13941;SDS011;7043;51.630;7.254;2024-03-29T01:51:39;3.03;;;2.27;;
13941;SDS011;7043;51.630;7.254;2024-03-29T01:54:06;2.17;;;1.93;;
13941;SDS011;7043;51.630;7.254;2024-03-29T01:56:32;3.90;;;2.20;;
13941;SDS011;7043;51.630;7.254;2024-03-29T01:58:58;2.57;;;2.07;;
13941;SDS011;7043;51.630;7.254;2024-03-29T02:01:26;3.30;;;1.97;;
13941;SDS011;7043;51.630;7.254;2024-03-29T02:03:53;2.53;;;2.03;;
13941;SDS011;7043;51.630;7.254;2024-03-29T02:06:19;4.30;;;3.13;;
13941;SDS011;7043;51.630;7.254;2024-03-29T02:08:46;2.90;;;2.60;;
13941;SDS011;7043;51.630;7.254;2024-03-29T02:11:15;2.90;;;2.50;;
13941;SDS011;7043;51.630;7.254;2024-03-29T02:13:41;3.97;;;2.70;;
13941;SDS011;7043;51.630;7.254;2024-03-29T02:16:07;3.30;;;3.00;;
13941;SDS011;7043;51.630;7.254;2024-03-29T02:18:33;2.57;;;2.37;;
13941;SDS011;7043;51.630;7.254;2024-03-29T02:20:59;4.20;;;2.30;;
13941;SDS011;7043;51.630;7.254;2024-03-29T02:23:26;2.50;;;2.30;;
13941;SDS011;7043;51.630;7.254;2024-03-29T02:25:55;2.40;;;2.20;;
13941;SDS011;7043;51.630;7.254;2024-03-29T02:28:24;3.50;;;3.20;;
13941;SDS011;7043;51.630;7.254;2024-03-29T02:30:50;3.40;;;3.10;;
13941;SDS011;7043;51.630;7.254;2024-03-29T02:33:16;2.33;;;2.20;;
13941;SDS011;7043;51.630;7.254;2024-03-29T02:35:43;3.17;;;2.97;;
13941;SDS011;7043;51.630;7.254;2024-03-29T02:38:09;3.30;;;2.60;;
13941;SDS011;7043;51.630;7.254;2024-03-29T02:40:35;3.60;;;3.30;;
13941;SDS011;7043;51.630;7.254;2024-03-29T02:43:01;3.13;;;2.83;;
13941;SDS011;7043;51.630;7.254;2024-03-29T02:45:26;3.23;;;3.00;;
13941;SDS011;7043;51.630;7.254;2024-03-29T02:47:52;3.13;;;2.93;;
13941;SDS011;7043;51.630;7.254;2024-03-29T02:50:18;3.40;;;3.10;;
13941;SDS011;7043;51.630;7.254;2024-03-29T02:52:44;3.00;;;2.80;;
13941;SDS011;7043;51.630;7.254;2024-03-29T02:55:10;2.90;;;2.57;;
13941;SDS011;7043;51.630;7.254;2024-03-29T02:57:37;2.83;;;2.33;;
13941;SDS011;7043;51.630;7.254;2024-03-29T03:00:04;2.83;;;2.50;;
13941;SDS011;7043;51.630;7.254;2024-03-29T03:02:30;2.47;;;2.23;;
13941;SDS011;7043;51.630;7.254;2024-03-29T03:04:56;3.33;;;2.73;;
13941;SDS011;7043;51.630;7.254;2024-03-29T03:07:24;4.17;;;3.77;;
13941;SDS011;7043;51.630;7.254;2024-03-29T03:10:09;4.87;;;3.40;;
13941;SDS011;7043;51.630;7.254;2024-03-29T03:12:53;4.67;;;4.13;;
13941;SDS011;7043;51.630;7.254;2024-03-29T03:15:19;3.60;;;3.30;;
13941;SDS011;7043;51.630;7.254;2024-03-29T03:17:45;3.40;;;3.10;;
13941;SDS011;7043;51.630;7.254;2024-03-29T03:20:11;3.73;;;3.43;;
13941;SDS011;7043;51.630;7.254;2024-03-29T03:22:39;4.03;;;3.73;;
13941;SDS011;7043;51.630;7.254;2024-03-29T03:25:05;4.00;;;3.70;;
13941;SDS011;7043;51.630;7.254;2024-03-29T03:27:31;2.93;;;2.73;;
13941;SDS011;7043;51.630;7.254;2024-03-29T03:29:57;3.00;;;2.27;;
13941;SDS011;7043;51.630;7.254;2024-03-29T03:32:23;3.20;;;2.80;;
13941;SDS011;7043;51.630;7.254;2024-03-29T03:34:49;3.30;;;3.07;;
13941;SDS011;7043;51.630;7.254;2024-03-29T03:37:15;3.47;;;2.53;;
13941;SDS011;7043;51.630;7.254;2024-03-29T03:39:41;3.13;;;2.30;;
13941;SDS011;7043;51.630;7.254;2024-03-29T03:42:07;2.87;;;2.67;;
13941;SDS011;7043;51.630;7.254;2024-03-29T03:44:33;2.77;;;2.30;;
13941;SDS011;7043;51.630;7.254;2024-03-29T03:46:59;2.60;;;2.40;;
13941;SDS011;7043;51.630;7.254;2024-03-29T03:49:25;2.97;;;2.57;;
13941;SDS011;7043;51.630;7.254;2024-03-29T03:51:51;2.67;;;2.37;;
13941;SDS011;7043;51.630;7.254;2024-03-29T03:54:17;2.60;;;2.40;;
13941;SDS011;7043;51.630;7.254;2024-03-29T03:56:43;3.00;;;2.10;;
13941;SDS011;7043;51.630;7.254;2024-03-29T03:59:09;3.07;;;2.23;;
13941;SDS011;7043;51.630;7.254;2024-03-29T04:01:35;2.97;;;2.80;;
13941;SDS011;7043;51.630;7.254;2024-03-29T04:04:01;2.07;;;1.97;;
13941;SDS011;7043;51.630;7.254;2024-03-29T04:06:27;2.20;;;2.00;;
13941;SDS011;7043;51.630;7.254;2024-03-29T04:08:54;2.40;;;1.90;;
13941;SDS011;7043;51.630;7.254;2024-03-29T04:11:20;1.90;;;1.80;;
13941;SDS011;7043;51.630;7.254;2024-03-29T04:13:46;1.87;;;1.70;;
13941;SDS011;7043;51.630;7.254;2024-03-29T04:16:12;2.43;;;1.63;;
13941;SDS011;7043;51.630;7.254;2024-03-29T04:18:38;3.07;;;1.50;;
13941;SDS011;7043;51.630;7.254;2024-03-29T04:21:04;1.40;;;1.23;;
13941;SDS011;7043;51.630;7.254;2024-03-29T04:23:30;1.73;;;1.63;;
13941;SDS011;7043;51.630;7.254;2024-03-29T04:25:57;1.80;;;1.37;;
13941;SDS011;7043;51.630;7.254;2024-03-29T04:28:23;1.73;;;1.40;;
13941;SDS011;7043;51.630;7.254;2024-03-29T04:33:18;2.17;;;1.43;;
13941;SDS011;7043;51.630;7.254;2024-03-29T04:38:19;2.23;;;1.67;;
13941;SDS011;7043;51.630;7.254;2024-03-29T04:40:45;1.70;;;1.60;;
13941;SDS011;7043;51.630;7.254;2024-03-29T04:43:11;2.20;;;1.60;;
13941;SDS011;7043;51.630;7.254;2024-03-29T04:45:37;1.83;;;1.20;;
13941;SDS011;7043;51.630;7.254;2024-03-29T04:48:03;1.90;;;1.00;;
13941;SDS011;7043;51.630;7.254;2024-03-29T04:50:30;2.63;;;1.10;;
13941;SDS011;7043;51.630;7.254;2024-03-29T04:52:56;3.07;;;1.40;;
13941;SDS011;7043;51.630;7.254;2024-03-29T04:55:22;1.40;;;1.10;;
13941;SDS011;7043;51.630;7.254;2024-03-29T04:57:47;1.83;;;1.30;;
13941;SDS011;7043;51.630;7.254;2024-03-29T05:00:13;1.30;;;1.17;;
13941;SDS011;7043;51.630;7.254;2024-03-29T05:02:39;3.20;;;1.20;;
13941;SDS011;7043;51.630;7.254;2024-03-29T05:05:05;2.17;;;1.13;;
13941;SDS011;7043;51.630;7.254;2024-03-29T05:07:31;1.23;;;1.10;;
13941;SDS011;7043;51.630;7.254;2024-03-29T05:09:57;2.17;;;1.10;;
13941;SDS011;7043;51.630;7.254;2024-03-29T05:12:25;2.57;;;1.30;;
13941;SDS011;7043;51.630;7.254;2024-03-29T05:14:51;1.93;;;1.20;;
13941;SDS011;7043;51.630;7.254;2024-03-29T05:17:17;2.67;;;1.50;;
13941;SDS011;7043;51.630;7.254;2024-03-29T05:19:45;3.43;;;1.40;;
13941;SDS011;7043;51.630;7.254;2024-03-29T05:22:11;2.13;;;1.13;;
13941;SDS011;7043;51.630;7.254;2024-03-29T05:24:37;3.43;;;1.20;;
13941;SDS011;7043;51.630;7.254;2024-03-29T05:27:03;2.83;;;1.20;;
13941;SDS011;7043;51.630;7.254;2024-03-29T05:29:29;2.63;;;1.23;;
13941;SDS011;7043;51.630;7.254;2024-03-29T05:31:55;2.87;;;1.53;;
13941;SDS011;7043;51.630;7.254;2024-03-29T05:34:21;2.30;;;1.47;;
13941;SDS011;7043;51.630;7.254;2024-03-29T05:36:48;3.47;;;1.43;;
13941;SDS011;7043;51.630;7.254;2024-03-29T05:39:14;4.30;;;1.77;;
13941;SDS011;7043;51.630;7.254;2024-03-29T05:41:41;2.57;;;1.60;;
13941;SDS011;7043;51.630;7.254;2024-03-29T05:44:07;2.83;;;1.60;;
13941;SDS011;7043;51.630;7.254;2024-03-29T05:46:33;3.73;;;1.10;;
13941;SDS011;7043;51.630;7.254;2024-03-29T05:48:59;2.37;;;1.30;;
13941;SDS011;7043;51.630;7.254;2024-03-29T05:51:24;3.63;;;1.27;;
13941;SDS011;7043;51.630;7.254;2024-03-29T05:53:50;2.37;;;1.40;;
13941;SDS011;7043;51.630;7.254;2024-03-29T05:56:16;4.77;;;1.50;;
13941;SDS011;7043;51.630;7.254;2024-03-29T05:58:42;3.90;;;1.63;;
13941;SDS011;7043;51.630;7.254;2024-03-29T06:01:10;3.20;;;1.60;;
13941;SDS011;7043;51.630;7.254;2024-03-29T06:03:36;4.43;;;1.60;;
13941;SDS011;7043;51.630;7.254;2024-03-29T06:06:02;5.10;;;1.80;;
13941;SDS011;7043;51.630;7.254;2024-03-29T06:08:28;2.40;;;1.60;;
13941;SDS011;7043;51.630;7.254;2024-03-29T06:10:54;3.07;;;1.70;;
13941;SDS011;7043;51.630;7.254;2024-03-29T06:13:20;1.63;;;1.20;;
13941;SDS011;7043;51.630;7.254;2024-03-29T06:16:15;4.43;;;1.73;;
13941;SDS011;7043;51.630;7.254;2024-03-29T06:19:00;2.57;;;1.37;;
13941;SDS011;7043;51.630;7.254;2024-03-29T06:21:26;3.40;;;1.37;;
13941;SDS011;7043;51.630;7.254;2024-03-29T06:23:52;1.83;;;1.17;;
13941;SDS011;7043;51.630;7.254;2024-03-29T06:26:18;4.17;;;1.40;;
13941;SDS011;7043;51.630;7.254;2024-03-29T06:28:45;3.43;;;1.40;;
13941;SDS011;7043;51.630;7.254;2024-03-29T06:31:11;3.30;;;1.80;;
13941;SDS011;7043;51.630;7.254;2024-03-29T06:33:37;3.40;;;1.90;;
13941;SDS011;7043;51.630;7.254;2024-03-29T06:36:04;3.37;;;1.80;;
13941;SDS011;7043;51.630;7.254;2024-03-29T06:38:30;3.87;;;1.90;;
13941;SDS011;7043;51.630;7.254;2024-03-29T06:40:56;3.57;;;1.90;;
13941;SDS011;7043;51.630;7.254;2024-03-29T06:43:22;5.67;;;1.87;;
13941;SDS011;7043;51.630;7.254;2024-03-29T06:45:48;3.90;;;1.60;;
13941;SDS011;7043;51.630;7.254;2024-03-29T06:48:14;3.07;;;1.60;;
13941;SDS011;7043;51.630;7.254;2024-03-29T06:50:40;2.83;;;1.50;;
13941;SDS011;7043;51.630;7.254;2024-03-29T06:53:06;2.97;;;1.63;;
13941;SDS011;7043;51.630;7.254;2024-03-29T06:55:34;2.23;;;1.53;;
13941;SDS011;7043;51.630;7.254;2024-03-29T06:58:02;3.23;;;1.60;;
13941;SDS011;7043;51.630;7.254;2024-03-29T07:00:28;3.53;;;1.50;;
13941;SDS011;7043;51.630;7.254;2024-03-29T07:02:54;3.83;;;1.70;;
13941;SDS011;7043;51.630;7.254;2024-03-29T07:05:20;3.47;;;1.70;;
13941;SDS011;7043;51.630;7.254;2024-03-29T07:07:46;5.37;;;1.80;;
13941;SDS011;7043;51.630;7.254;2024-03-29T07:10:12;2.77;;;1.60;;
13941;SDS011;7043;51.630;7.254;2024-03-29T07:12:38;2.83;;;1.50;;
13941;SDS011;7043;51.630;7.254;2024-03-29T07:15:04;2.07;;;1.43;;
13941;SDS011;7043;51.630;7.254;2024-03-29T07:17:30;3.17;;;1.57;;
13941;SDS011;7043;51.630;7.254;2024-03-29T07:19:56;3.43;;;1.70;;
13941;SDS011;7043;51.630;7.254;2024-03-29T07:22:22;2.57;;;1.80;;
13941;SDS011;7043;51.630;7.254;2024-03-29T07:24:48;3.73;;;1.70;;
13941;SDS011;7043;51.630;7.254;2024-03-29T07:27:14;4.73;;;2.00;;
13941;SDS011;7043;51.630;7.254;2024-03-29T07:29:42;5.17;;;2.10;;
13941;SDS011;7043;51.630;7.254;2024-03-29T07:32:09;4.03;;;1.93;;
13941;SDS011;7043;51.630;7.254;2024-03-29T07:34:35;3.87;;;1.93;;
13941;SDS011;7043;51.630;7.254;2024-03-29T07:37:04;3.87;;;1.90;;
13941;SDS011;7043;51.630;7.254;2024-03-29T07:39:30;3.43;;;1.93;;
13941;SDS011;7043;51.630;7.254;2024-03-29T07:41:56;3.23;;;1.93;;
13941;SDS011;7043;51.630;7.254;2024-03-29T07:44:22;3.23;;;1.87;;
13941;SDS011;7043;51.630;7.254;2024-03-29T07:46:48;4.23;;;2.00;;
13941;SDS011;7043;51.630;7.254;2024-03-29T07:49:14;3.33;;;2.20;;
13941;SDS011;7043;51.630;7.254;2024-03-29T07:51:46;5.00;;;2.33;;
13941;SDS011;7043;51.630;7.254;2024-03-29T07:54:12;3.40;;;2.20;;
13941;SDS011;7043;51.630;7.254;2024-03-29T07:56:38;3.23;;;2.13;;
13941;SDS011;7043;51.630;7.254;2024-03-29T07:59:04;3.80;;;2.27;;
13941;SDS011;7043;51.630;7.254;2024-03-29T08:01:30;5.33;;;2.13;;
13941;SDS011;7043;51.630;7.254;2024-03-29T08:03:56;3.40;;;2.50;;
13941;SDS011;7043;51.630;7.254;2024-03-29T08:06:22;3.53;;;2.20;;
13941;SDS011;7043;51.630;7.254;2024-03-29T08:08:49;5.17;;;3.00;;
13941;SDS011;7043;51.630;7.254;2024-03-29T08:11:15;4.63;;;2.30;;
13941;SDS011;7043;51.630;7.254;2024-03-29T08:13:41;3.73;;;2.07;;
13941;SDS011;7043;51.630;7.254;2024-03-29T08:16:07;2.93;;;1.93;;
13941;SDS011;7043;51.630;7.254;2024-03-29T08:18:34;8.87;;;1.93;;
13941;SDS011;7043;51.630;7.254;2024-03-29T08:21:00;4.67;;;2.07;;
13941;SDS011;7043;51.630;7.254;2024-03-29T08:23:26;4.87;;;3.37;;
13941;SDS011;7043;51.630;7.254;2024-03-29T08:25:52;1.90;;;1.50;;
13941;SDS011;7043;51.630;7.254;2024-03-29T08:28:21;3.73;;;2.63;;
13941;SDS011;7043;51.630;7.254;2024-03-29T08:30:56;1.83;;;1.60;;
13941;SDS011;7043;51.630;7.254;2024-03-29T08:33:22;2.10;;;1.67;;
13941;SDS011;7043;51.630;7.254;2024-03-29T08:35:49;2.83;;;1.53;;
13941;SDS011;7043;51.630;7.254;2024-03-29T08:38:15;2.37;;;1.60;;
13941;SDS011;7043;51.630;7.254;2024-03-29T08:40:41;1.93;;;1.43;;
13941;SDS011;7043;51.630;7.254;2024-03-29T08:43:08;2.10;;;1.50;;
13941;SDS011;7043;51.630;7.254;2024-03-29T08:45:35;2.47;;;1.57;;
13941;SDS011;7043;51.630;7.254;2024-03-29T08:48:06;2.30;;;1.73;;
13941;SDS011;7043;51.630;7.254;2024-03-29T08:50:32;2.53;;;1.53;;
13941;SDS011;7043;51.630;7.254;2024-03-29T08:52:58;2.37;;;1.70;;
13941;SDS011;7043;51.630;7.254;2024-03-29T08:55:24;2.77;;;1.93;;
13941;SDS011;7043;51.630;7.254;2024-03-29T08:57:51;2.83;;;1.70;;
13941;SDS011;7043;51.630;7.254;2024-03-29T09:00:17;3.30;;;1.87;;
13941;SDS011;7043;51.630;7.254;2024-03-29T09:02:43;1.83;;;1.60;;
13941;SDS011;7043;51.630;7.254;2024-03-29T09:05:09;3.23;;;2.63;;
13941;SDS011;7043;51.630;7.254;2024-03-29T09:07:35;3.40;;;3.10;;
13941;SDS011;7043;51.630;7.254;2024-03-29T09:10:02;4.17;;;2.60;;
13941;SDS011;7043;51.630;7.254;2024-03-29T09:12:28;3.03;;;2.67;;
13941;SDS011;7043;51.630;7.254;2024-03-29T09:14:54;3.40;;;2.00;;
13941;SDS011;7043;51.630;7.254;2024-03-29T09:17:20;2.00;;;1.83;;
13941;SDS011;7043;51.630;7.254;2024-03-29T09:19:49;4.53;;;3.23;;
13941;SDS011;7043;51.630;7.254;2024-03-29T09:22:15;4.37;;;3.00;;
13941;SDS011;7043;51.630;7.254;2024-03-29T09:24:42;2.60;;;2.30;;
13941;SDS011;7043;51.630;7.254;2024-03-29T09:27:08;2.60;;;2.40;;
13941;SDS011;7043;51.630;7.254;2024-03-29T09:29:34;2.50;;;2.30;;
13941;SDS011;7043;51.630;7.254;2024-03-29T09:32:00;2.10;;;1.90;;
13941;SDS011;7043;51.630;7.254;2024-03-29T09:34:27;2.83;;;2.30;;
13941;SDS011;7043;51.630;7.254;2024-03-29T09:36:53;2.77;;;2.47;;
13941;SDS011;7043;51.630;7.254;2024-03-29T09:39:19;2.80;;;2.60;;
13941;SDS011;7043;51.630;7.254;2024-03-29T09:41:45;2.63;;;2.30;;
13941;SDS011;7043;51.630;7.254;2024-03-29T09:44:11;3.13;;;2.27;;
13941;SDS011;7043;51.630;7.254;2024-03-29T09:46:37;2.60;;;2.40;;
13941;SDS011;7043;51.630;7.254;2024-03-29T09:49:05;3.10;;;2.40;;
13941;SDS011;7043;51.630;7.254;2024-03-29T09:51:36;2.90;;;2.60;;
13941;SDS011;7043;51.630;7.254;2024-03-29T09:54:03;3.50;;;2.73;;
13941;SDS011;7043;51.630;7.254;2024-03-29T09:56:29;2.50;;;2.30;;
13941;SDS011;7043;51.630;7.254;2024-03-29T09:58:55;3.47;;;2.93;;
13941;SDS011;7043;51.630;7.254;2024-03-29T10:01:22;3.20;;;2.60;;
13941;SDS011;7043;51.630;7.254;2024-03-29T10:03:48;3.10;;;2.70;;
13941;SDS011;7043;51.630;7.254;2024-03-29T10:06:18;3.23;;;2.93;;
13941;SDS011;7043;51.630;7.254;2024-03-29T10:08:47;3.43;;;2.80;;
13941;SDS011;7043;51.630;7.254;2024-03-29T10:11:13;3.93;;;2.57;;
13941;SDS011;7043;51.630;7.254;2024-03-29T10:13:44;2.43;;;2.10;;
13941;SDS011;7043;51.630;7.254;2024-03-29T10:16:11;3.30;;;2.90;;
13941;SDS011;7043;51.630;7.254;2024-03-29T10:18:38;2.77;;;1.83;;
13941;SDS011;7043;51.630;7.254;2024-03-29T10:21:07;3.90;;;2.03;;
13941;SDS011;7043;51.630;7.254;2024-03-29T10:23:34;4.03;;;2.00;;
13941;SDS011;7043;51.630;7.254;2024-03-29T10:26:00;2.30;;;2.00;;
13941;SDS011;7043;51.630;7.254;2024-03-29T10:28:30;3.87;;;1.93;;
13941;SDS011;7043;51.630;7.254;2024-03-29T10:31:04;4.33;;;2.87;;
13941;SDS011;7043;51.630;7.254;2024-03-29T10:33:30;4.40;;;2.20;;
13941;SDS011;7043;51.630;7.254;2024-03-29T10:35:57;2.97;;;2.00;;
13941;SDS011;7043;51.630;7.254;2024-03-29T10:38:24;3.13;;;2.07;;
13941;SDS011;7043;51.630;7.254;2024-03-29T10:40:51;3.77;;;2.33;;
13941;SDS011;7043;51.630;7.254;2024-03-29T10:43:17;5.77;;;4.33;;
13941;SDS011;7043;51.630;7.254;2024-03-29T10:45:44;5.53;;;4.33;;
13941;SDS011;7043;51.630;7.254;2024-03-29T10:48:11;1.93;;;1.70;;
13941;SDS011;7043;51.630;7.254;2024-03-29T10:50:38;3.07;;;1.90;;
13941;SDS011;7043;51.630;7.254;2024-03-29T10:53:06;1.60;;;1.43;;
13941;SDS011;7043;51.630;7.254;2024-03-29T10:55:35;1.87;;;1.60;;
13941;SDS011;7043;51.630;7.254;2024-03-29T10:58:02;1.90;;;1.40;;
13941;SDS011;7043;51.630;7.254;2024-03-29T11:00:29;1.93;;;1.40;;
13941;SDS011;7043;51.630;7.254;2024-03-29T11:06:03;2.03;;;1.70;;
13941;SDS011;7043;51.630;7.254;2024-03-29T11:08:33;1.93;;;1.37;;
13941;SDS011;7043;51.630;7.254;2024-03-29T11:11:04;2.23;;;2.00;;
13941;SDS011;7043;51.630;7.254;2024-03-29T11:13:34;1.57;;;1.47;;
13941;SDS011;7043;51.630;7.254;2024-03-29T11:16:04;2.50;;;2.30;;
13941;SDS011;7043;51.630;7.254;2024-03-29T11:18:30;5.60;;;3.07;;
13941;SDS011;7043;51.630;7.254;2024-03-29T11:20:59;3.20;;;1.90;;
13941;SDS011;7043;51.630;7.254;2024-03-29T11:23:27;3.20;;;1.50;;
13941;SDS011;7043;51.630;7.254;2024-03-29T11:25:54;2.73;;;2.00;;
13941;SDS011;7043;51.630;7.254;2024-03-29T11:28:24;2.37;;;1.60;;
13941;SDS011;7043;51.630;7.254;2024-03-29T11:30:51;2.33;;;1.80;;
13941;SDS011;7043;51.630;7.254;2024-03-29T11:33:28;2.47;;;1.77;;
13941;SDS011;7043;51.630;7.254;2024-03-29T11:35:55;2.17;;;1.73;;
13941;SDS011;7043;51.630;7.254;2024-03-29T11:38:21;3.17;;;2.90;;
13941;SDS011;7043;51.630;7.254;2024-03-29T11:41:02;1.60;;;1.50;;
13941;SDS011;7043;51.630;7.254;2024-03-29T11:43:32;3.43;;;2.60;;
13941;SDS011;7043;51.630;7.254;2024-03-29T11:46:02;4.53;;;3.60;;
13941;SDS011;7043;51.630;7.254;2024-03-29T11:48:28;1.37;;;1.27;;
13941;SDS011;7043;51.630;7.254;2024-03-29T11:50:56;2.30;;;1.30;;
13941;SDS011;7043;51.630;7.254;2024-03-29T11:53:22;2.80;;;2.27;;
13941;SDS011;7043;51.630;7.254;2024-03-29T11:55:48;2.77;;;1.50;;
13941;SDS011;7043;51.630;7.254;2024-03-29T11:58:19;3.50;;;1.60;;
13941;SDS011;7043;51.630;7.254;2024-03-29T12:00:45;1.85;;;1.50;;
13941;SDS011;7043;51.630;7.254;2024-03-29T12:03:12;2.20;;;1.80;;
13941;SDS011;7043;51.630;7.254;2024-03-29T12:05:38;0.77;;;0.70;;
13941;SDS011;7043;51.630;7.254;2024-03-29T12:08:05;1.55;;;1.27;;
13941;SDS011;7043;51.630;7.254;2024-03-29T12:10:31;1.73;;;1.10;;
13941;SDS011;7043;51.630;7.254;2024-03-29T12:12:57;1.50;;;0.90;;
13941;SDS011;7043;51.630;7.254;2024-03-29T12:15:24;1.38;;;1.10;;
13941;SDS011;7043;51.630;7.254;2024-03-29T12:17:57;1.98;;;0.90;;
13941;SDS011;7043;51.630;7.254;2024-03-29T12:20:23;1.55;;;1.13;;
13941;SDS011;7043;51.630;7.254;2024-03-29T12:22:49;2.00;;;1.00;;
13941;SDS011;7043;51.630;7.254;2024-03-29T12:25:15;1.40;;;1.20;;
13941;SDS011;7043;51.630;7.254;2024-03-29T12:27:45;1.33;;;1.10;;
13941;SDS011;7043;51.630;7.254;2024-03-29T12:30:12;1.55;;;1.23;;
13941;SDS011;7043;51.630;7.254;2024-03-29T12:32:39;1.38;;;1.23;;
13941;SDS011;7043;51.630;7.254;2024-03-29T12:37:35;2.40;;;1.30;;
13941;SDS011;7043;51.630;7.254;2024-03-29T12:40:01;2.23;;;1.60;;
13941;SDS011;7043;51.630;7.254;2024-03-29T12:42:37;1.90;;;1.50;;
13941;SDS011;7043;51.630;7.254;2024-03-29T12:45:03;2.20;;;1.70;;
13941;SDS011;7043;51.630;7.254;2024-03-29T12:47:30;2.20;;;1.70;;
13941;SDS011;7043;51.630;7.254;2024-03-29T12:49:58;2.90;;;1.60;;
13941;SDS011;7043;51.630;7.254;2024-03-29T12:52:25;2.00;;;1.70;;
13941;SDS011;7043;51.630;7.254;2024-03-29T12:54:51;1.80;;;1.70;;
13941;SDS011;7043;51.630;7.254;2024-03-29T12:57:17;2.53;;;1.97;;
13941;SDS011;7043;51.630;7.254;2024-03-29T12:59:44;4.83;;;1.93;;
13941;SDS011;7043;51.630;7.254;2024-03-29T13:02:11;3.07;;;1.70;;
13941;SDS011;7043;51.630;7.254;2024-03-29T13:04:38;3.23;;;1.80;;
13941;SDS011;7043;51.630;7.254;2024-03-29T13:07:08;3.60;;;1.80;;
13941;SDS011;7043;51.630;7.254;2024-03-29T13:09:34;1.67;;;1.57;;
13941;SDS011;7043;51.630;7.254;2024-03-29T13:12:00;3.00;;;1.57;;
13941;SDS011;7043;51.630;7.254;2024-03-29T13:14:26;4.33;;;2.97;;
13941;SDS011;7043;51.630;7.254;2024-03-29T13:16:52;3.85;;;2.90;;
13941;SDS011;7043;51.630;7.254;2024-03-29T13:19:18;2.20;;;1.70;;
13941;SDS011;7043;51.630;7.254;2024-03-29T13:21:44;2.35;;;1.67;;
13941;SDS011;7043;51.630;7.254;2024-03-29T13:24:10;1.85;;;1.20;;
13941;SDS011;7043;51.630;7.254;2024-03-29T13:26:36;2.72;;;1.33;;
13941;SDS011;7043;51.630;7.254;2024-03-29T13:29:02;1.27;;;1.00;;
13941;SDS011;7043;51.630;7.254;2024-03-29T13:31:28;1.33;;;1.05;;
13941;SDS011;7043;51.630;7.254;2024-03-29T13:33:56;2.37;;;1.10;;
13941;SDS011;7043;51.630;7.254;2024-03-29T13:36:29;1.85;;;1.00;;
13941;SDS011;7043;51.630;7.254;2024-03-29T13:38:55;2.33;;;1.13;;
13941;SDS011;7043;51.630;7.254;2024-03-29T13:41:21;2.78;;;1.10;;
13941;SDS011;7043;51.630;7.254;2024-03-29T13:43:47;1.60;;;1.00;;
13941;SDS011;7043;51.630;7.254;2024-03-29T13:46:13;1.90;;;1.13;;
13941;SDS011;7043;51.630;7.254;2024-03-29T13:48:39;1.98;;;1.30;;
13941;SDS011;7043;51.630;7.254;2024-03-29T13:51:06;1.33;;;1.23;;
13941;SDS011;7043;51.630;7.254;2024-03-29T13:53:32;1.20;;;0.85;;
13941;SDS011;7043;51.630;7.254;2024-03-29T13:56:00;1.60;;;0.90;;
13941;SDS011;7043;51.630;7.254;2024-03-29T13:58:28;1.35;;;0.70;;
13941;SDS011;7043;51.630;7.254;2024-03-29T14:00:54;1.75;;;1.10;;
13941;SDS011;7043;51.630;7.254;2024-03-29T14:03:21;1.98;;;1.73;;
13941;SDS011;7043;51.630;7.254;2024-03-29T14:05:48;3.55;;;2.60;;
13941;SDS011;7043;51.630;7.254;2024-03-29T14:08:14;4.32;;;1.10;;
13941;SDS011;7043;51.630;7.254;2024-03-29T14:10:40;2.33;;;1.67;;
13941;SDS011;7043;51.630;7.254;2024-03-29T14:13:07;1.67;;;1.00;;
13941;SDS011;7043;51.630;7.254;2024-03-29T14:15:34;1.52;;;1.10;;
13941;SDS011;7043;51.630;7.254;2024-03-29T14:18:00;1.58;;;1.48;;
13941;SDS011;7043;51.630;7.254;2024-03-29T14:20:26;6.43;;;5.18;;
13941;SDS011;7043;51.630;7.254;2024-03-29T14:22:52;4.78;;;3.80;;
13941;SDS011;7043;51.630;7.254;2024-03-29T14:25:21;1.58;;;1.30;;
13941;SDS011;7043;51.630;7.254;2024-03-29T14:27:47;2.40;;;1.63;;
13941;SDS011;7043;51.630;7.254;2024-03-29T14:30:19;4.57;;;4.07;;
13941;SDS011;7043;51.630;7.254;2024-03-29T14:32:46;3.38;;;2.28;;
13941;SDS011;7043;51.630;7.254;2024-03-29T14:35:15;3.67;;;2.22;;
13941;SDS011;7043;51.630;7.254;2024-03-29T14:37:42;2.55;;;1.88;;
13941;SDS011;7043;51.630;7.254;2024-03-29T14:40:08;1.85;;;1.35;;
13941;SDS011;7043;51.630;7.254;2024-03-29T14:42:34;3.58;;;2.83;;
13941;SDS011;7043;51.630;7.254;2024-03-29T14:45:03;2.20;;;1.88;;
13941;SDS011;7043;51.630;7.254;2024-03-29T14:47:31;2.65;;;2.10;;
13941;SDS011;7043;51.630;7.254;2024-03-29T14:49:57;1.95;;;1.00;;
13941;SDS011;7043;51.630;7.254;2024-03-29T14:52:24;1.95;;;1.15;;
13941;SDS011;7043;51.630;7.254;2024-03-29T14:54:49;2.35;;;1.90;;
13941;SDS011;7043;51.630;7.254;2024-03-29T14:57:15;1.10;;;1.00;;
13941;SDS011;7043;51.630;7.254;2024-03-29T14:59:44;1.40;;;1.25;;
13941;SDS011;7043;51.630;7.254;2024-03-29T15:02:10;1.67;;;1.35;;
13941;SDS011;7043;51.630;7.254;2024-03-29T15:04:36;1.63;;;1.13;;
13941;SDS011;7043;51.630;7.254;2024-03-29T15:07:03;1.80;;;1.25;;
13941;SDS011;7043;51.630;7.254;2024-03-29T15:09:29;2.10;;;1.58;;